sensor_id;sensor_type;location;lat;lon;timestamp;P1;durP1;ratioP1;P2;durP2;ratioP2
13704;SDS011;6924;52.122;9.952;2022-12-07T00:01:43;19.37;;;13.17;;
13704;SDS011;6924;52.122;9.952;2022-12-07T00:04:13;17.90;;;12.90;;
13704;SDS011;6924;52.122;9.952;2022-12-07T00:06:41;20.77;;;13.53;;
13704;SDS011;6924;52.122;9.952;2022-12-07T00:09:10;23.53;;;13.97;;
13704;SDS011;6924;52.122;9.952;2022-12-07T00:11:38;22.80;;;13.03;;
13704;SDS011;6924;52.122;9.952;2022-12-07T00:14:06;24.10;;;13.60;;
13704;SDS011;6924;52.122;9.952;2022-12-07T00:16:35;21.00;;;14.37;;
13704;SDS011;6924;52.122;9.952;2022-12-07T00:19:02;21.10;;;14.33;;
13704;SDS011;6924;52.122;9.952;2022-12-07T00:21:31;22.80;;;13.20;;
13704;SDS011;6924;52.122;9.952;2022-12-07T00:23:59;18.97;;;13.60;;
13704;SDS011;6924;52.122;9.952;2022-12-07T00:26:28;18.03;;;12.90;;
13704;SDS011;6924;52.122;9.952;2022-12-07T00:28:56;17.57;;;12.60;;
13704;SDS011;6924;52.122;9.952;2022-12-07T00:31:25;18.20;;;12.77;;
13704;SDS011;6924;52.122;9.952;2022-12-07T00:33:52;19.30;;;12.23;;
13704;SDS011;6924;52.122;9.952;2022-12-07T00:36:19;16.50;;;12.70;;
13704;SDS011;6924;52.122;9.952;2022-12-07T00:38:49;19.87;;;12.27;;
13704;SDS011;6924;52.122;9.952;2022-12-07T00:41:16;21.53;;;13.07;;
13704;SDS011;6924;52.122;9.952;2022-12-07T00:43:44;15.47;;;12.00;;
13704;SDS011;6924;52.122;9.952;2022-12-07T00:46:12;14.80;;;11.27;;
13704;SDS011;6924;52.122;9.952;2022-12-07T00:48:40;13.47;;;11.10;;
13704;SDS011;6924;52.122;9.952;2022-12-07T00:51:07;12.70;;;11.10;;
13704;SDS011;6924;52.122;9.952;2022-12-07T00:53:35;14.63;;;10.57;;
13704;SDS011;6924;52.122;9.952;2022-12-07T00:56:06;14.27;;;11.13;;
13704;SDS011;6924;52.122;9.952;2022-12-07T00:58:33;14.90;;;11.20;;
13704;SDS011;6924;52.122;9.952;2022-12-07T01:01:00;21.92;;;15.98;;
13704;SDS011;6924;52.122;9.952;2022-12-07T01:03:28;13.20;;;11.50;;
13704;SDS011;6924;52.122;9.952;2022-12-07T01:05:55;13.80;;;11.50;;
13704;SDS011;6924;52.122;9.952;2022-12-07T01:08:24;11.13;;;9.93;;
13704;SDS011;6924;52.122;9.952;2022-12-07T01:10:57;11.80;;;9.47;;
13704;SDS011;6924;52.122;9.952;2022-12-07T01:13:26;15.73;;;11.33;;
13704;SDS011;6924;52.122;9.952;2022-12-07T01:15:55;11.87;;;10.57;;
13704;SDS011;6924;52.122;9.952;2022-12-07T01:18:23;17.23;;;10.03;;
13704;SDS011;6924;52.122;9.952;2022-12-07T01:20:56;16.03;;;10.37;;
13704;SDS011;6924;52.122;9.952;2022-12-07T01:23:24;11.43;;;9.97;;
13704;SDS011;6924;52.122;9.952;2022-12-07T01:25:53;11.50;;;9.83;;
13704;SDS011;6924;52.122;9.952;2022-12-07T01:28:21;11.30;;;10.10;;
13704;SDS011;6924;52.122;9.952;2022-12-07T01:30:55;12.10;;;9.53;;
13704;SDS011;6924;52.122;9.952;2022-12-07T01:33:22;13.43;;;9.57;;
13704;SDS011;6924;52.122;9.952;2022-12-07T01:35:49;11.23;;;10.07;;
13704;SDS011;6924;52.122;9.952;2022-12-07T01:38:15;11.77;;;10.17;;
13704;SDS011;6924;52.122;9.952;2022-12-07T01:40:42;11.67;;;10.53;;
13704;SDS011;6924;52.122;9.952;2022-12-07T01:43:11;11.93;;;10.60;;
13704;SDS011;6924;52.122;9.952;2022-12-07T01:45:42;10.50;;;9.40;;
13704;SDS011;6924;52.122;9.952;2022-12-07T01:48:11;13.87;;;10.50;;
13704;SDS011;6924;52.122;9.952;2022-12-07T01:50:40;12.00;;;10.47;;
13704;SDS011;6924;52.122;9.952;2022-12-07T01:53:08;11.17;;;10.00;;
13704;SDS011;6924;52.122;9.952;2022-12-07T01:55:37;12.67;;;11.40;;
13704;SDS011;6924;52.122;9.952;2022-12-07T01:58:06;11.97;;;10.63;;
13704;SDS011;6924;52.122;9.952;2022-12-07T02:00:33;13.77;;;10.57;;
13704;SDS011;6924;52.122;9.952;2022-12-07T02:03:00;14.87;;;10.97;;
13704;SDS011;6924;52.122;9.952;2022-12-07T02:05:33;13.57;;;10.83;;
13704;SDS011;6924;52.122;9.952;2022-12-07T02:08:02;13.10;;;11.07;;
13704;SDS011;6924;52.122;9.952;2022-12-07T02:10:30;13.67;;;10.87;;
13704;SDS011;6924;52.122;9.952;2022-12-07T02:12:58;12.20;;;10.77;;
13704;SDS011;6924;52.122;9.952;2022-12-07T02:15:28;13.63;;;10.30;;
13704;SDS011;6924;52.122;9.952;2022-12-07T02:18:06;13.50;;;10.43;;
13704;SDS011;6924;52.122;9.952;2022-12-07T02:20:38;13.23;;;10.97;;
13704;SDS011;6924;52.122;9.952;2022-12-07T02:23:30;12.77;;;10.87;;
13704;SDS011;6924;52.122;9.952;2022-12-07T02:26:16;13.60;;;11.13;;
13704;SDS011;6924;52.122;9.952;2022-12-07T02:29:10;11.17;;;9.97;;
13704;SDS011;6924;52.122;9.952;2022-12-07T02:31:44;14.40;;;11.50;;
13704;SDS011;6924;52.122;9.952;2022-12-07T02:34:22;14.23;;;11.23;;
13704;SDS011;6924;52.122;9.952;2022-12-07T02:37:00;13.87;;;11.70;;
13704;SDS011;6924;52.122;9.952;2022-12-07T02:39:44;15.77;;;11.80;;
13704;SDS011;6924;52.122;9.952;2022-12-07T02:42:19;14.00;;;11.40;;
13704;SDS011;6924;52.122;9.952;2022-12-07T02:44:53;12.20;;;10.90;;
13704;SDS011;6924;52.122;9.952;2022-12-07T02:47:19;18.13;;;12.40;;
13704;SDS011;6924;52.122;9.952;2022-12-07T02:49:50;15.03;;;11.93;;
13704;SDS011;6924;52.122;9.952;2022-12-07T02:52:17;16.80;;;11.47;;
13704;SDS011;6924;52.122;9.952;2022-12-07T02:54:44;15.97;;;12.10;;
13704;SDS011;6924;52.122;9.952;2022-12-07T02:57:17;14.60;;;11.97;;
13704;SDS011;6924;52.122;9.952;2022-12-07T02:59:59;15.20;;;11.90;;
13704;SDS011;6924;52.122;9.952;2022-12-07T03:02:33;15.20;;;11.33;;
13704;SDS011;6924;52.122;9.952;2022-12-07T03:05:13;14.67;;;11.40;;
13704;SDS011;6924;52.122;9.952;2022-12-07T03:07:49;17.40;;;12.10;;
13704;SDS011;6924;52.122;9.952;2022-12-07T03:10:28;12.90;;;11.53;;
13704;SDS011;6924;52.122;9.952;2022-12-07T03:13:05;17.70;;;11.50;;
13704;SDS011;6924;52.122;9.952;2022-12-07T03:15:40;18.00;;;12.37;;
13704;SDS011;6924;52.122;9.952;2022-12-07T03:18:13;13.57;;;10.63;;
13704;SDS011;6924;52.122;9.952;2022-12-07T03:20:43;13.90;;;11.37;;
13704;SDS011;6924;52.122;9.952;2022-12-07T03:23:13;14.93;;;11.43;;
13704;SDS011;6924;52.122;9.952;2022-12-07T03:25:43;13.90;;;11.43;;
13704;SDS011;6924;52.122;9.952;2022-12-07T03:28:13;14.67;;;11.03;;
13704;SDS011;6924;52.122;9.952;2022-12-07T03:30:47;11.70;;;9.40;;
13704;SDS011;6924;52.122;9.952;2022-12-07T03:33:20;12.33;;;9.80;;
13704;SDS011;6924;52.122;9.952;2022-12-07T03:35:52;12.20;;;10.60;;
13704;SDS011;6924;52.122;9.952;2022-12-07T03:38:27;20.45;;;14.38;;
13704;SDS011;6924;52.122;9.952;2022-12-07T03:40:59;11.17;;;9.40;;
13704;SDS011;6924;52.122;9.952;2022-12-07T03:43:31;14.10;;;10.03;;
13704;SDS011;6924;52.122;9.952;2022-12-07T03:46:00;11.03;;;8.63;;
13704;SDS011;6924;52.122;9.952;2022-12-07T03:48:35;10.93;;;9.03;;
13704;SDS011;6924;52.122;9.952;2022-12-07T03:51:07;11.73;;;9.40;;
13704;SDS011;6924;52.122;9.952;2022-12-07T03:53:40;10.83;;;9.13;;
13704;SDS011;6924;52.122;9.952;2022-12-07T03:56:11;11.87;;;10.00;;
13704;SDS011;6924;52.122;9.952;2022-12-07T03:58:38;10.07;;;9.00;;
13704;SDS011;6924;52.122;9.952;2022-12-07T04:01:08;10.73;;;9.27;;
13704;SDS011;6924;52.122;9.952;2022-12-07T04:03:35;10.53;;;8.20;;
13704;SDS011;6924;52.122;9.952;2022-12-07T04:06:01;16.17;;;7.90;;
13704;SDS011;6924;52.122;9.952;2022-12-07T04:08:28;11.03;;;7.77;;
13704;SDS011;6924;52.122;9.952;2022-12-07T04:10:54;11.17;;;8.77;;
13704;SDS011;6924;52.122;9.952;2022-12-07T04:13:21;9.53;;;7.40;;
13704;SDS011;6924;52.122;9.952;2022-12-07T04:15:47;11.67;;;8.03;;
13704;SDS011;6924;52.122;9.952;2022-12-07T04:18:15;12.93;;;7.87;;
13704;SDS011;6924;52.122;9.952;2022-12-07T04:20:41;12.43;;;7.80;;
13704;SDS011;6924;52.122;9.952;2022-12-07T04:23:08;14.57;;;8.67;;
13704;SDS011;6924;52.122;9.952;2022-12-07T04:25:34;8.83;;;7.23;;
13704;SDS011;6924;52.122;9.952;2022-12-07T04:28:01;10.27;;;8.23;;
13704;SDS011;6924;52.122;9.952;2022-12-07T04:30:27;9.37;;;8.37;;
13704;SDS011;6924;52.122;9.952;2022-12-07T04:32:54;9.07;;;7.33;;
13704;SDS011;6924;52.122;9.952;2022-12-07T04:35:22;11.77;;;8.23;;
13704;SDS011;6924;52.122;9.952;2022-12-07T04:37:48;9.97;;;8.00;;
13704;SDS011;6924;52.122;9.952;2022-12-07T04:40:15;12.30;;;8.70;;
13704;SDS011;6924;52.122;9.952;2022-12-07T04:42:41;11.87;;;8.90;;
13704;SDS011;6924;52.122;9.952;2022-12-07T04:45:08;13.83;;;8.30;;
13704;SDS011;6924;52.122;9.952;2022-12-07T04:47:35;11.23;;;8.03;;
13704;SDS011;6924;52.122;9.952;2022-12-07T04:50:02;8.57;;;7.23;;
13704;SDS011;6924;52.122;9.952;2022-12-07T04:52:30;12.43;;;8.20;;
13704;SDS011;6924;52.122;9.952;2022-12-07T04:54:57;12.10;;;7.47;;
13704;SDS011;6924;52.122;9.952;2022-12-07T04:57:23;12.43;;;8.17;;
13704;SDS011;6924;52.122;9.952;2022-12-07T04:59:50;11.63;;;6.90;;
13704;SDS011;6924;52.122;9.952;2022-12-07T05:02:16;10.37;;;8.00;;
13704;SDS011;6924;52.122;9.952;2022-12-07T05:04:43;11.23;;;8.23;;
13704;SDS011;6924;52.122;9.952;2022-12-07T05:07:09;15.23;;;7.57;;
13704;SDS011;6924;52.122;9.952;2022-12-07T05:09:37;12.40;;;7.83;;
13704;SDS011;6924;52.122;9.952;2022-12-07T05:12:04;12.77;;;7.33;;
13704;SDS011;6924;52.122;9.952;2022-12-07T05:14:30;13.27;;;8.30;;
13704;SDS011;6924;52.122;9.952;2022-12-07T05:16:57;11.00;;;8.83;;
13704;SDS011;6924;52.122;9.952;2022-12-07T05:19:23;12.73;;;8.03;;
13704;SDS011;6924;52.122;9.952;2022-12-07T05:21:51;10.30;;;7.10;;
13704;SDS011;6924;52.122;9.952;2022-12-07T05:24:17;11.77;;;8.07;;
13704;SDS011;6924;52.122;9.952;2022-12-07T05:26:45;12.33;;;8.00;;
13704;SDS011;6924;52.122;9.952;2022-12-07T05:29:12;11.67;;;6.83;;
13704;SDS011;6924;52.122;9.952;2022-12-07T05:31:40;12.40;;;6.53;;
13704;SDS011;6924;52.122;9.952;2022-12-07T05:34:07;10.13;;;7.27;;
13704;SDS011;6924;52.122;9.952;2022-12-07T05:36:34;10.53;;;7.03;;
13704;SDS011;6924;52.122;9.952;2022-12-07T05:39:01;10.70;;;7.33;;
13704;SDS011;6924;52.122;9.952;2022-12-07T05:41:28;10.07;;;7.37;;
13704;SDS011;6924;52.122;9.952;2022-12-07T05:44:14;20.07;;;7.33;;
13704;SDS011;6924;52.122;9.952;2022-12-07T05:46:40;11.80;;;7.87;;
13704;SDS011;6924;52.122;9.952;2022-12-07T05:49:07;9.53;;;7.10;;
13704;SDS011;6924;52.122;9.952;2022-12-07T05:51:33;8.70;;;6.90;;
13704;SDS011;6924;52.122;9.952;2022-12-07T05:54:00;9.77;;;6.90;;
13704;SDS011;6924;52.122;9.952;2022-12-07T05:56:26;10.00;;;6.97;;
13704;SDS011;6924;52.122;9.952;2022-12-07T05:58:53;12.73;;;6.83;;
13704;SDS011;6924;52.122;9.952;2022-12-07T06:01:39;8.60;;;6.50;;
13704;SDS011;6924;52.122;9.952;2022-12-07T06:04:05;18.13;;;7.77;;
13704;SDS011;6924;52.122;9.952;2022-12-07T06:06:32;8.33;;;6.70;;
13704;SDS011;6924;52.122;9.952;2022-12-07T06:08:58;6.87;;;6.00;;
13704;SDS011;6924;52.122;9.952;2022-12-07T06:11:25;10.27;;;6.93;;
13704;SDS011;6924;52.122;9.952;2022-12-07T06:14:09;7.77;;;6.30;;
13704;SDS011;6924;52.122;9.952;2022-12-07T06:16:36;13.13;;;6.37;;
13704;SDS011;6924;52.122;9.952;2022-12-07T06:19:04;10.00;;;7.10;;
13704;SDS011;6924;52.122;9.952;2022-12-07T06:21:31;12.30;;;6.87;;
13704;SDS011;6924;52.122;9.952;2022-12-07T06:23:57;10.07;;;6.10;;
13704;SDS011;6924;52.122;9.952;2022-12-07T06:26:24;13.80;;;6.23;;
13704;SDS011;6924;52.122;9.952;2022-12-07T06:28:50;8.20;;;5.97;;
13704;SDS011;6924;52.122;9.952;2022-12-07T06:31:17;10.30;;;6.87;;
13704;SDS011;6924;52.122;9.952;2022-12-07T06:33:43;8.17;;;6.13;;
13704;SDS011;6924;52.122;9.952;2022-12-07T06:36:11;7.80;;;6.80;;
13704;SDS011;6924;52.122;9.952;2022-12-07T06:38:38;8.00;;;6.77;;
13704;SDS011;6924;52.122;9.952;2022-12-07T06:41:05;10.17;;;6.60;;
13704;SDS011;6924;52.122;9.952;2022-12-07T06:43:31;9.80;;;6.90;;
13704;SDS011;6924;52.122;9.952;2022-12-07T06:45:59;11.27;;;5.97;;
13704;SDS011;6924;52.122;9.952;2022-12-07T06:48:25;9.40;;;6.70;;
13704;SDS011;6924;52.122;9.952;2022-12-07T06:50:52;7.33;;;6.53;;
13704;SDS011;6924;52.122;9.952;2022-12-07T06:53:20;10.97;;;6.90;;
13704;SDS011;6924;52.122;9.952;2022-12-07T06:55:46;6.20;;;5.33;;
13704;SDS011;6924;52.122;9.952;2022-12-07T06:58:13;9.30;;;6.67;;
13704;SDS011;6924;52.122;9.952;2022-12-07T07:00:39;6.50;;;5.63;;
13704;SDS011;6924;52.122;9.952;2022-12-07T07:03:06;5.87;;;5.30;;
13704;SDS011;6924;52.122;9.952;2022-12-07T07:05:32;6.63;;;5.37;;
13704;SDS011;6924;52.122;9.952;2022-12-07T07:07:59;10.33;;;5.87;;
13704;SDS011;6924;52.122;9.952;2022-12-07T07:10:27;7.07;;;4.90;;
13704;SDS011;6924;52.122;9.952;2022-12-07T07:12:53;9.23;;;5.93;;
13704;SDS011;6924;52.122;9.952;2022-12-07T07:15:20;11.07;;;5.33;;
13704;SDS011;6924;52.122;9.952;2022-12-07T07:17:46;7.93;;;5.63;;
13704;SDS011;6924;52.122;9.952;2022-12-07T07:20:13;7.20;;;5.40;;
13704;SDS011;6924;52.122;9.952;2022-12-07T07:22:39;7.83;;;5.90;;
13704;SDS011;6924;52.122;9.952;2022-12-07T07:25:06;8.30;;;5.53;;
13704;SDS011;6924;52.122;9.952;2022-12-07T07:27:34;5.60;;;5.07;;
13704;SDS011;6924;52.122;9.952;2022-12-07T07:30:00;6.60;;;5.57;;
13704;SDS011;6924;52.122;9.952;2022-12-07T07:32:27;6.23;;;4.60;;
13704;SDS011;6924;52.122;9.952;2022-12-07T07:34:54;5.50;;;4.43;;
13704;SDS011;6924;52.122;9.952;2022-12-07T07:37:20;4.27;;;3.63;;
13704;SDS011;6924;52.122;9.952;2022-12-07T07:39:47;3.90;;;3.50;;
13704;SDS011;6924;52.122;9.952;2022-12-07T07:42:13;3.90;;;3.60;;
13704;SDS011;6924;52.122;9.952;2022-12-07T07:44:42;5.10;;;3.50;;
13704;SDS011;6924;52.122;9.952;2022-12-07T07:47:08;5.50;;;3.80;;
13704;SDS011;6924;52.122;9.952;2022-12-07T07:49:35;4.27;;;3.57;;
13704;SDS011;6924;52.122;9.952;2022-12-07T07:52:01;5.90;;;3.50;;
13704;SDS011;6924;52.122;9.952;2022-12-07T07:54:28;4.87;;;3.60;;
13704;SDS011;6924;52.122;9.952;2022-12-07T07:56:55;5.83;;;4.17;;
13704;SDS011;6924;52.122;9.952;2022-12-07T07:59:21;5.03;;;4.10;;
13704;SDS011;6924;52.122;9.952;2022-12-07T08:01:49;7.23;;;3.77;;
13704;SDS011;6924;52.122;9.952;2022-12-07T08:04:16;4.00;;;3.60;;
13704;SDS011;6924;52.122;9.952;2022-12-07T08:06:42;3.77;;;3.47;;
13704;SDS011;6924;52.122;9.952;2022-12-07T08:09:09;3.97;;;3.67;;
13704;SDS011;6924;52.122;9.952;2022-12-07T08:11:35;4.00;;;3.60;;
13704;SDS011;6924;52.122;9.952;2022-12-07T08:14:02;3.30;;;3.03;;
13704;SDS011;6924;52.122;9.952;2022-12-07T08:16:28;3.50;;;3.03;;
13704;SDS011;6924;52.122;9.952;2022-12-07T08:18:56;4.60;;;3.33;;
13704;SDS011;6924;52.122;9.952;2022-12-07T08:21:23;3.17;;;2.87;;
13704;SDS011;6924;52.122;9.952;2022-12-07T08:23:49;4.13;;;3.07;;
13704;SDS011;6924;52.122;9.952;2022-12-07T08:26:16;4.57;;;3.10;;
13704;SDS011;6924;52.122;9.952;2022-12-07T08:28:42;5.17;;;3.67;;
13704;SDS011;6924;52.122;9.952;2022-12-07T08:31:11;3.97;;;3.00;;
13704;SDS011;6924;52.122;9.952;2022-12-07T08:33:39;4.17;;;3.57;;
13704;SDS011;6924;52.122;9.952;2022-12-07T08:36:09;6.13;;;2.83;;
13704;SDS011;6924;52.122;9.952;2022-12-07T08:38:37;3.13;;;2.83;;
13704;SDS011;6924;52.122;9.952;2022-12-07T08:41:05;6.13;;;3.17;;
13704;SDS011;6924;52.122;9.952;2022-12-07T08:43:33;4.37;;;2.83;;
13704;SDS011;6924;52.122;9.952;2022-12-07T08:46:03;3.40;;;2.70;;
13704;SDS011;6924;52.122;9.952;2022-12-07T08:48:33;2.70;;;2.50;;
13704;SDS011;6924;52.122;9.952;2022-12-07T08:51:02;2.70;;;2.50;;
13704;SDS011;6924;52.122;9.952;2022-12-07T08:53:30;3.27;;;2.97;;
13704;SDS011;6924;52.122;9.952;2022-12-07T08:55:58;5.37;;;3.17;;
13704;SDS011;6924;52.122;9.952;2022-12-07T08:58:24;3.97;;;3.27;;
13704;SDS011;6924;52.122;9.952;2022-12-07T09:00:51;3.20;;;2.90;;
13704;SDS011;6924;52.122;9.952;2022-12-07T09:03:18;3.73;;;3.43;;
13704;SDS011;6924;52.122;9.952;2022-12-07T09:05:44;3.93;;;3.33;;
13704;SDS011;6924;52.122;9.952;2022-12-07T09:08:11;4.43;;;3.73;;
13704;SDS011;6924;52.122;9.952;2022-12-07T09:10:39;3.67;;;3.30;;
13704;SDS011;6924;52.122;9.952;2022-12-07T09:13:05;6.63;;;3.67;;
13704;SDS011;6924;52.122;9.952;2022-12-07T09:15:32;6.30;;;4.23;;
13704;SDS011;6924;52.122;9.952;2022-12-07T09:17:59;5.33;;;3.83;;
13704;SDS011;6924;52.122;9.952;2022-12-07T09:20:25;3.80;;;3.43;;
13704;SDS011;6924;52.122;9.952;2022-12-07T09:22:52;4.17;;;3.87;;
13704;SDS011;6924;52.122;9.952;2022-12-07T09:25:18;3.77;;;3.47;;
13704;SDS011;6924;52.122;9.952;2022-12-07T09:27:46;8.33;;;4.10;;
13704;SDS011;6924;52.122;9.952;2022-12-07T09:30:13;3.40;;;3.10;;
13704;SDS011;6924;52.122;9.952;2022-12-07T09:32:40;4.10;;;3.20;;
13704;SDS011;6924;52.122;9.952;2022-12-07T09:35:07;6.03;;;3.97;;
13704;SDS011;6924;52.122;9.952;2022-12-07T09:37:34;2.70;;;2.50;;
13704;SDS011;6924;52.122;9.952;2022-12-07T09:40:01;5.50;;;3.67;;
13704;SDS011;6924;52.122;9.952;2022-12-07T09:42:29;3.33;;;3.03;;
13704;SDS011;6924;52.122;9.952;2022-12-07T09:45:00;3.87;;;3.07;;
13704;SDS011;6924;52.122;9.952;2022-12-07T09:47:28;3.70;;;3.07;;
13704;SDS011;6924;52.122;9.952;2022-12-07T09:49:55;2.67;;;2.40;;
13704;SDS011;6924;52.122;9.952;2022-12-07T09:52:29;18.40;;;4.13;;
13704;SDS011;6924;52.122;9.952;2022-12-07T09:54:57;8.33;;;2.73;;
13704;SDS011;6924;52.122;9.952;2022-12-07T09:57:25;3.97;;;2.60;;
13704;SDS011;6924;52.122;9.952;2022-12-07T09:59:55;2.97;;;2.47;;
13704;SDS011;6924;52.122;9.952;2022-12-07T10:02:32;4.10;;;2.47;;
13704;SDS011;6924;52.122;9.952;2022-12-07T10:05:03;3.10;;;2.37;;
13704;SDS011;6924;52.122;9.952;2022-12-07T10:07:31;2.23;;;2.03;;
13704;SDS011;6924;52.122;9.952;2022-12-07T10:09:58;2.50;;;2.13;;
13704;SDS011;6924;52.122;9.952;2022-12-07T10:12:25;2.53;;;2.07;;
13704;SDS011;6924;52.122;9.952;2022-12-07T10:14:55;2.70;;;1.90;;
13704;SDS011;6924;52.122;9.952;2022-12-07T10:17:31;2.10;;;1.87;;
13704;SDS011;6924;52.122;9.952;2022-12-07T10:20:13;1.80;;;1.70;;
13704;SDS011;6924;52.122;9.952;2022-12-07T10:22:56;2.90;;;2.37;;
13704;SDS011;6924;52.122;9.952;2022-12-07T10:25:26;1.90;;;1.77;;
13704;SDS011;6924;52.122;9.952;2022-12-07T10:28:02;2.77;;;2.50;;
13704;SDS011;6924;52.122;9.952;2022-12-07T10:30:46;2.73;;;2.10;;
13704;SDS011;6924;52.122;9.952;2022-12-07T10:33:29;2.63;;;2.03;;
13704;SDS011;6924;52.122;9.952;2022-12-07T10:35:57;2.00;;;1.90;;
13704;SDS011;6924;52.122;9.952;2022-12-07T10:38:24;2.67;;;2.07;;
13704;SDS011;6924;52.122;9.952;2022-12-07T10:41:02;2.40;;;2.00;;
13704;SDS011;6924;52.122;9.952;2022-12-07T10:43:30;2.03;;;1.93;;
13704;SDS011;6924;52.122;9.952;2022-12-07T10:46:17;1.97;;;1.23;;
13704;SDS011;6924;52.122;9.952;2022-12-07T10:49:04;2.30;;;1.60;;
13704;SDS011;6924;52.122;9.952;2022-12-07T10:51:56;1.50;;;1.40;;
13704;SDS011;6924;52.122;9.952;2022-12-07T10:54:32;1.57;;;1.20;;
13704;SDS011;6924;52.122;9.952;2022-12-07T10:57:17;1.37;;;1.27;;
13704;SDS011;6924;52.122;9.952;2022-12-07T10:59:58;1.27;;;1.27;;
13704;SDS011;6924;52.122;9.952;2022-12-07T11:02:37;1.43;;;1.00;;
13704;SDS011;6924;52.122;9.952;2022-12-07T11:05:23;1.37;;;1.20;;
13704;SDS011;6924;52.122;9.952;2022-12-07T11:08:00;1.50;;;1.40;;
13704;SDS011;6924;52.122;9.952;2022-12-07T11:10:34;4.63;;;1.60;;
13704;SDS011;6924;52.122;9.952;2022-12-07T11:13:20;3.00;;;1.40;;
13704;SDS011;6924;52.122;9.952;2022-12-07T11:15:57;1.80;;;1.07;;
13704;SDS011;6924;52.122;9.952;2022-12-07T11:18:33;3.57;;;1.67;;
13704;SDS011;6924;52.122;9.952;2022-12-07T11:21:07;2.27;;;1.40;;
13704;SDS011;6924;52.122;9.952;2022-12-07T11:23:41;4.07;;;1.83;;
13704;SDS011;6924;52.122;9.952;2022-12-07T11:26:16;2.80;;;1.63;;
13704;SDS011;6924;52.122;9.952;2022-12-07T11:28:59;1.77;;;1.67;;
13704;SDS011;6924;52.122;9.952;2022-12-07T11:31:49;3.77;;;1.40;;
13704;SDS011;6924;52.122;9.952;2022-12-07T11:34:25;2.10;;;1.90;;
13704;SDS011;6924;52.122;9.952;2022-12-07T11:37:05;2.23;;;1.80;;
13704;SDS011;6924;52.122;9.952;2022-12-07T11:39:39;1.77;;;1.67;;
13704;SDS011;6924;52.122;9.952;2022-12-07T11:42:13;2.03;;;1.93;;
13704;SDS011;6924;52.122;9.952;2022-12-07T11:44:47;4.47;;;2.27;;
13704;SDS011;6924;52.122;9.952;2022-12-07T11:47:20;2.40;;;1.90;;
13704;SDS011;6924;52.122;9.952;2022-12-07T11:49:53;4.80;;;1.57;;
13704;SDS011;6924;52.122;9.952;2022-12-07T11:52:25;3.13;;;1.50;;
13704;SDS011;6924;52.122;9.952;2022-12-07T11:54:57;5.87;;;1.17;;
13704;SDS011;6924;52.122;9.952;2022-12-07T11:57:28;3.60;;;1.43;;
13704;SDS011;6924;52.122;9.952;2022-12-07T12:00:03;3.70;;;1.40;;
13704;SDS011;6924;52.122;9.952;2022-12-07T12:02:33;2.00;;;1.07;;
13704;SDS011;6924;52.122;9.952;2022-12-07T12:05:12;2.27;;;1.37;;
13704;SDS011;6924;52.122;9.952;2022-12-07T12:07:43;2.47;;;1.40;;
13704;SDS011;6924;52.122;9.952;2022-12-07T12:10:17;2.33;;;1.50;;
13704;SDS011;6924;52.122;9.952;2022-12-07T12:12:52;2.20;;;1.13;;
13704;SDS011;6924;52.122;9.952;2022-12-07T12:15:38;2.40;;;1.10;;
13704;SDS011;6924;52.122;9.952;2022-12-07T12:21:03;2.53;;;1.00;;
13704;SDS011;6924;52.122;9.952;2022-12-07T12:23:37;1.67;;;1.00;;
13704;SDS011;6924;52.122;9.952;2022-12-07T12:26:07;3.30;;;1.17;;
13704;SDS011;6924;52.122;9.952;2022-12-07T12:28:48;2.43;;;0.90;;
13704;SDS011;6924;52.122;9.952;2022-12-07T12:31:28;1.97;;;0.90;;
13704;SDS011;6924;52.122;9.952;2022-12-07T12:34:00;3.33;;;1.30;;
13704;SDS011;6924;52.122;9.952;2022-12-07T12:36:43;4.30;;;1.20;;
13704;SDS011;6924;52.122;9.952;2022-12-07T12:39:12;3.13;;;0.90;;
13704;SDS011;6924;52.122;9.952;2022-12-07T12:41:56;1.60;;;1.07;;
13704;SDS011;6924;52.122;9.952;2022-12-07T12:47:42;4.53;;;1.93;;
13704;SDS011;6924;52.122;9.952;2022-12-07T12:50:20;2.00;;;1.20;;
13704;SDS011;6924;52.122;9.952;2022-12-07T12:52:53;2.53;;;1.20;;
13704;SDS011;6924;52.122;9.952;2022-12-07T12:55:45;2.93;;;1.23;;
13704;SDS011;6924;52.122;9.952;2022-12-07T12:58:34;1.83;;;0.70;;
13704;SDS011;6924;52.122;9.952;2022-12-07T13:04:02;2.07;;;0.90;;
13704;SDS011;6924;52.122;9.952;2022-12-07T13:06:43;2.53;;;1.00;;
13704;SDS011;6924;52.122;9.952;2022-12-07T13:09:16;2.90;;;1.63;;
13704;SDS011;6924;52.122;9.952;2022-12-07T13:11:48;3.43;;;1.40;;
13704;SDS011;6924;52.122;9.952;2022-12-07T13:17:08;3.20;;;1.27;;
13704;SDS011;6924;52.122;9.952;2022-12-07T13:28:34;1.80;;;0.97;;
13704;SDS011;6924;52.122;9.952;2022-12-07T13:31:09;4.13;;;1.10;;
13704;SDS011;6924;52.122;9.952;2022-12-07T13:33:41;2.70;;;1.00;;
13704;SDS011;6924;52.122;9.952;2022-12-07T13:36:11;5.67;;;1.60;;
13704;SDS011;6924;52.122;9.952;2022-12-07T13:38:48;1.40;;;0.90;;
13704;SDS011;6924;52.122;9.952;2022-12-07T13:41:17;2.03;;;1.17;;
13704;SDS011;6924;52.122;9.952;2022-12-07T13:43:49;1.87;;;1.20;;
13704;SDS011;6924;52.122;9.952;2022-12-07T13:46:19;1.77;;;0.80;;
13704;SDS011;6924;52.122;9.952;2022-12-07T13:48:51;2.97;;;1.20;;
13704;SDS011;6924;52.122;9.952;2022-12-07T13:51:20;1.00;;;0.90;;
13704;SDS011;6924;52.122;9.952;2022-12-07T13:53:49;1.33;;;1.00;;
13704;SDS011;6924;52.122;9.952;2022-12-07T13:56:17;2.17;;;1.20;;
13704;SDS011;6924;52.122;9.952;2022-12-07T13:58:43;2.23;;;1.00;;
13704;SDS011;6924;52.122;9.952;2022-12-07T14:01:12;5.73;;;2.17;;
13704;SDS011;6924;52.122;9.952;2022-12-07T14:03:39;2.97;;;1.57;;
13704;SDS011;6924;52.122;9.952;2022-12-07T14:06:10;3.97;;;1.03;;
13704;SDS011;6924;52.122;9.952;2022-12-07T14:08:44;5.80;;;3.40;;
13704;SDS011;6924;52.122;9.952;2022-12-07T14:11:13;3.77;;;2.63;;
13704;SDS011;6924;52.122;9.952;2022-12-07T14:16:32;7.10;;;2.33;;
13704;SDS011;6924;52.122;9.952;2022-12-07T14:19:01;5.13;;;2.63;;
13704;SDS011;6924;52.122;9.952;2022-12-07T14:21:30;3.63;;;2.30;;
13704;SDS011;6924;52.122;9.952;2022-12-07T14:24:11;6.13;;;1.60;;
13704;SDS011;6924;52.122;9.952;2022-12-07T14:26:42;4.43;;;1.90;;
13704;SDS011;6924;52.122;9.952;2022-12-07T14:29:18;7.40;;;1.90;;
13704;SDS011;6924;52.122;9.952;2022-12-07T14:31:47;2.10;;;1.30;;
13704;SDS011;6924;52.122;9.952;2022-12-07T14:34:14;2.47;;;1.43;;
13704;SDS011;6924;52.122;9.952;2022-12-07T14:36:41;2.50;;;1.10;;
13704;SDS011;6924;52.122;9.952;2022-12-07T14:39:07;3.87;;;1.40;;
13704;SDS011;6924;52.122;9.952;2022-12-07T14:41:34;3.33;;;2.00;;
13704;SDS011;6924;52.122;9.952;2022-12-07T14:44:19;5.23;;;1.63;;
13704;SDS011;6924;52.122;9.952;2022-12-07T14:46:48;1.23;;;1.10;;
13704;SDS011;6924;52.122;9.952;2022-12-07T14:49:15;3.00;;;1.70;;
13704;SDS011;6924;52.122;9.952;2022-12-07T14:51:46;3.97;;;2.07;;
13704;SDS011;6924;52.122;9.952;2022-12-07T14:54:14;6.03;;;3.07;;
13704;SDS011;6924;52.122;9.952;2022-12-07T14:56:43;1.60;;;1.50;;
13704;SDS011;6924;52.122;9.952;2022-12-07T14:59:10;2.53;;;1.40;;
13704;SDS011;6924;52.122;9.952;2022-12-07T15:01:37;1.70;;;1.00;;
13704;SDS011;6924;52.122;9.952;2022-12-07T15:04:05;2.23;;;1.20;;
13704;SDS011;6924;52.122;9.952;2022-12-07T15:06:32;1.07;;;0.80;;
13704;SDS011;6924;52.122;9.952;2022-12-07T15:08:58;1.87;;;1.00;;
13704;SDS011;6924;52.122;9.952;2022-12-07T15:11:25;4.00;;;1.30;;
13704;SDS011;6924;52.122;9.952;2022-12-07T15:13:52;1.97;;;1.00;;
13704;SDS011;6924;52.122;9.952;2022-12-07T15:16:34;3.03;;;0.87;;
13704;SDS011;6924;52.122;9.952;2022-12-07T15:19:01;4.73;;;1.37;;
13704;SDS011;6924;52.122;9.952;2022-12-07T15:21:29;6.60;;;1.30;;
13704;SDS011;6924;52.122;9.952;2022-12-07T15:23:55;5.03;;;1.40;;
13704;SDS011;6924;52.122;9.952;2022-12-07T15:26:22;1.97;;;1.10;;
13704;SDS011;6924;52.122;9.952;2022-12-07T15:28:48;1.70;;;1.17;;
13704;SDS011;6924;52.122;9.952;2022-12-07T15:31:16;2.50;;;0.80;;
13704;SDS011;6924;52.122;9.952;2022-12-07T15:33:43;2.40;;;1.03;;
13704;SDS011;6924;52.122;9.952;2022-12-07T15:36:14;2.03;;;1.30;;